TimeCDT,TemperatureF,Dew PointF,Humidity,Sea Level PressureIn,VisibilityMPH,Wind Direction,Wind SpeedMPH,Gust SpeedMPH,PrecipitationIn,Events,Conditions,WindDirDegrees,DateUTC
12:15 AM,67.6,65.5,93,30.03,10.0,Calm,Calm,-,N/A,,Mostly Cloudy,0,2013-06-16 05:15:00
12:35 AM,67.6,65.5,93,30.01,10.0,Calm,Calm,-,N/A,,Mostly Cloudy,0,2013-06-16 05:35:00
12:55 AM,67.5,65.7,94,29.99,10.0,SSE,6.9,-,N/A,Rain,Light Rain,150,2013-06-16 05:55:00
1:15 AM,67.3,65.7,95,29.98,10.0,South,5.8,-,N/A,Rain,Light Rain,170,2013-06-16 06:15:00
1:35 AM,67.3,65.7,95,29.97,10.0,SSE,3.5,-,N/A,Rain,Light Rain,160,2013-06-16 06:35:00
1:55 AM,67.5,65.8,95,29.98,10.0,South,5.8,-,N/A,Rain,Light Rain,190,2013-06-16 06:55:00
2:15 AM,67.5,65.8,95,29.98,10.0,South,10.4,-,N/A,Rain,Rain,180,2013-06-16 07:15:00
2:35 AM,67.3,65.7,95,29.98,10.0,South,6.9,-,N/A,,Light Drizzle,190,2013-06-16 07:35:00
2:55 AM,67.3,65.5,94,29.96,10.0,South,6.9,-,N/A,,Scattered Clouds,190,2013-06-16 07:55:00
3:15 AM,67.3,65.3,93,29.95,10.0,SW,3.5,-,N/A,,Clear,220,2013-06-16 08:15:00
3:35 AM,67.3,65.3,93,29.96,10.0,South,5.8,-,N/A,,Clear,190,2013-06-16 08:35:00
3:55 AM,67.1,65.5,95,29.97,10.0,South,6.9,-,N/A,,Clear,190,2013-06-16 08:55:00
4:15 AM,67.3,65.5,94,29.96,10.0,South,10.4,-,N/A,Rain,Light Rain,190,2013-06-16 09:15:00
4:35 AM,67.3,65.7,95,29.96,10.0,SSW,8.1,-,N/A,Rain,Light Rain,200,2013-06-16 09:35:00
4:55 AM,67.5,65.7,94,29.97,10.0,SSW,6.9,-,N/A,,Scattered Clouds,210,2013-06-16 09:55:00
5:15 AM,67.6,65.5,93,29.98,10.0,SSW,8.1,-,N/A,,Scattered Clouds,210,2013-06-16 10:15:00
5:35 AM,67.6,65.5,93,29.97,10.0,SSW,5.8,-,N/A,,Scattered Clouds,210,2013-06-16 10:35:00
5:55 AM,67.6,65.5,93,29.97,10.0,SSW,4.6,-,N/A,,Scattered Clouds,200,2013-06-16 10:55:00
6:15 AM,68.0,65.7,92,29.98,10.0,SSW,9.2,-,N/A,,Mostly Cloudy,200,2013-06-16 11:15:00
6:35 AM,67.8,65.8,93,29.99,10.0,SSW,6.9,-,N/A,,Overcast,200,2013-06-16 11:35:00
6:55 AM,68.0,66.2,94,30.00,7.0,SSW,10.4,-,N/A,Rain,Rain,200,2013-06-16 11:55:00
7:15 AM,68.0,66.2,94,30.00,10.0,SSW,4.6,-,N/A,,Light Drizzle,210,2013-06-16 12:15:00
7:35 AM,68.4,66.7,95,30.00,10.0,Calm,Calm,-,N/A,,Overcast,0,2013-06-16 12:35:00
7:55 AM,68.9,67.1,94,30.00,10.0,SSW,4.6,-,N/A,,Overcast,210,2013-06-16 12:55:00
8:15 AM,69.8,67.8,93,30.00,10.0,SSW,8.1,-,N/A,,Mostly Cloudy,200,2013-06-16 13:15:00
8:35 AM,70.2,68.0,93,30.00,10.0,SSW,9.2,-,N/A,,Mostly Cloudy,200,2013-06-16 13:35:00
8:55 AM,71.2,68.0,89,30.01,10.0,SSW,10.4,-,N/A,,Scattered Clouds,210,2013-06-16 13:55:00
9:15 AM,72.3,68.4,87,30.01,10.0,SSW,11.5,-,N/A,,Scattered Clouds,210,2013-06-16 14:15:00
9:35 AM,72.9,68.4,86,30.01,10.0,SSW,11.5,-,N/A,Thunderstorm,Scattered Clouds,200,2013-06-16 14:35:00
9:55 AM,72.9,68.7,87,30.00,10.0,South,9.2,-,N/A,,Mostly Cloudy,190,2013-06-16 14:55:00
10:15 AM,73.4,68.2,84,29.99,10.0,SSW,11.5,-,N/A,,Mostly Cloudy,200,2013-06-16 15:15:00
10:35 AM,74.5,68.2,81,29.99,10.0,SSW,11.5,-,N/A,,Mostly Cloudy,200,2013-06-16 15:35:00
10:55 AM,74.3,67.8,80,29.99,10.0,SSW,9.2,-,N/A,,Overcast,200,2013-06-16 15:55:00
11:15 AM,75.0,68.0,79,29.99,10.0,SSW,8.1,-,N/A,,Overcast,200,2013-06-16 16:15:00
11:35 AM,76.3,68.5,77,29.98,10.0,SSW,6.9,-,N/A,,Mostly Cloudy,200,2013-06-16 16:35:00
11:55 AM,75.9,68.0,76,29.98,10.0,SSW,6.9,-,N/A,,Scattered Clouds,210,2013-06-16 16:55:00
12:15 PM,77.2,68.2,74,29.98,10.0,SW,3.5,-,N/A,,Clear,220,2013-06-16 17:15:00
12:35 PM,78.1,68.7,73,29.98,10.0,SW,8.1,-,N/A,,Scattered Clouds,230,2013-06-16 17:35:00
12:55 PM,78.1,68.4,72,29.98,10.0,SW,9.2,-,N/A,,Mostly Cloudy,220,2013-06-16 17:55:00
1:15 PM,77.0,69.1,76,29.98,10.0,SSW,10.4,-,N/A,,Mostly Cloudy,210,2013-06-16 18:15:00
1:35 PM,77.5,70.0,77,29.98,10.0,SSW,8.1,-,N/A,,Scattered Clouds,200,2013-06-16 18:35:00
1:55 PM,78.6,69.4,73,29.98,10.0,SSW,9.2,-,N/A,,Scattered Clouds,200,2013-06-16 18:55:00
2:15 PM,78.6,69.1,72,29.97,10.0,SW,8.1,-,N/A,,Mostly Cloudy,230,2013-06-16 19:15:00
2:35 PM,79.5,70.0,72,29.97,10.0,SW,8.1,-,N/A,,Mostly Cloudy,230,2013-06-16 19:35:00
2:55 PM,80.2,69.6,70,29.96,10.0,SW,9.2,-,N/A,,Scattered Clouds,230,2013-06-16 19:55:00
3:15 PM,80.8,70.0,70,29.96,10.0,SW,8.1,-,N/A,,Clear,220,2013-06-16 20:15:00
3:35 PM,80.8,69.8,69,29.96,10.0,SSW,8.1,-,N/A,,Scattered Clouds,200,2013-06-16 20:35:00
3:55 PM,80.8,70.2,70,29.96,10.0,WSW,8.1,-,N/A,,Scattered Clouds,250,2013-06-16 20:55:00
4:15 PM,80.2,69.6,70,29.96,10.0,WSW,8.1,-,N/A,,Scattered Clouds,240,2013-06-16 21:15:00
4:35 PM,80.4,70.0,70,29.95,10.0,WSW,6.9,-,N/A,,Scattered Clouds,240,2013-06-16 21:35:00
4:55 PM,81.1,70.5,70,29.95,10.0,WSW,6.9,-,N/A,,Scattered Clouds,250,2013-06-16 21:55:00
5:15 PM,80.6,70.3,71,29.95,10.0,West,4.6,-,N/A,,Scattered Clouds,260,2013-06-16 22:15:00
5:35 PM,81.7,70.0,68,29.95,10.0,West,8.1,-,N/A,,Scattered Clouds,260,2013-06-16 22:35:00
5:55 PM,81.0,70.0,69,29.95,10.0,West,5.8,-,N/A,,Scattered Clouds,270,2013-06-16 22:55:00
6:15 PM,81.7,69.3,66,29.94,10.0,WNW,8.1,-,N/A,,Scattered Clouds,290,2013-06-16 23:15:00
6:35 PM,80.8,69.6,69,29.94,10.0,West,4.6,-,N/A,,Scattered Clouds,260,2013-06-16 23:35:00
6:55 PM,80.8,69.1,67,29.94,10.0,WNW,5.8,-,N/A,,Scattered Clouds,300,2013-06-16 23:55:00
7:15 PM,80.6,69.1,68,29.94,10.0,WNW,5.8,-,N/A,,Clear,300,2013-06-17 00:15:00
7:35 PM,79.7,70.3,73,29.94,10.0,NNW,3.5,-,N/A,,Clear,330,2013-06-17 00:35:00
7:55 PM,79.7,70.3,73,29.94,10.0,Calm,Calm,-,N/A,,Clear,0,2013-06-17 00:55:00
8:15 PM,78.8,70.5,76,29.93,10.0,Calm,Calm,-,N/A,,Clear,0,2013-06-17 01:15:00
8:35 PM,76.6,71.2,83,29.93,10.0,Calm,Calm,-,N/A,,Clear,0,2013-06-17 01:35:00
8:55 PM,75.2,70.7,86,29.94,10.0,Calm,Calm,-,N/A,,Clear,0,2013-06-17 01:55:00
9:15 PM,75.2,70.9,86,29.95,10.0,Calm,Calm,-,N/A,,Clear,0,2013-06-17 02:15:00
9:35 PM,74.5,70.3,87,29.95,10.0,Calm,Calm,-,N/A,,Clear,0,2013-06-17 02:35:00
9:55 PM,74.1,70.7,89,29.97,10.0,Calm,Calm,-,N/A,,Clear,0,2013-06-17 02:55:00
10:15 PM,72.9,70.2,91,29.98,10.0,Calm,Calm,-,N/A,,Clear,0,2013-06-17 03:15:00
10:35 PM,72.5,70.3,93,29.99,7.0,Calm,Calm,-,N/A,,Clear,0,2013-06-17 03:35:00
10:55 PM,72.1,70.5,95,29.97,7.0,Calm,Calm,-,N/A,,Clear,0,2013-06-17 03:55:00
11:15 PM,72.5,70.7,94,29.97,7.0,Calm,Calm,-,N/A,,Clear,0,2013-06-17 04:15:00
11:35 PM,72.3,70.5,94,29.97,5.0,Calm,Calm,-,N/A,,Clear,0,2013-06-17 04:35:00
11:55 PM,71.6,69.8,94,29.97,7.0,Calm,Calm,-,N/A,,Clear,0,2013-06-17 04:55:00